Terminal Aerodrome Forecast
Issued by NWS St Louis, MO

Home | Current Version | Previous Version | Text Only | Print | Product List | Glossary On
Versions: 1 2 3 4 5 6 7 8 9 10 11 12 13 14 15 16 17 18 19 20 21
665
FTUS43 KLSX 300257 AAA
TAFCOU
TAF AMD
KCOU 300257Z 3003/3024 06011KT P6SM -SHRA VCTS OVC007CB
      TEMPO 3003/3006 4SM SHRA BKN004
     FM301200 13009KT 3SM SHRA VCTS OVC009CB
     FM301600 17011G20KT P6SM VCSH OVC015
     FM302000 18011G21KT P6SM BKN025=

USA.gov is the U.S. government's official web portal to all federal, state and local government web resources and services.